Portada
METAR-TAF:

METAR-TAF

Aeropuertos :

Bergerac, Francia

latitud: 44-49N, longitud: 000-31E, altitud: 51 m

Observación

El informe se hizo hace 20 minutos, a las 02:30 UTC
Viento 1 kt del este
Temperatura 10°C
Humedad 100%
Presión 1015 hPa
Visibilidad: 2300 m

METAR: LFBE 310230Z AUTO 09001KT 6000 2300 NSC 10/10 Q1015 NOSIG

Hora: 04:50 (02:50 UTC)

Pronóstico

El informe se hizo hace 3 horas y 50 minutos, a las 23:00 UTC
Pronóstico válido del 31 a las 00 UTC al 31 a las 24 UTC
Viento 5 kt del oeste
Visibilidad 10 km o más
sin nubes por debajo de 1500 m y sin presencia de cumulonimbus.
Temporalmente
del 31 a las 11 UTC al 31 a las 17 UTC
Cielo nuboso a una altura de 3000 ft, Cumulus congestus.
chaparrones de lluvia

TAF: LFBE 302300Z 3100/3124 28005KT CAVOK TEMPO 3111/3117 -SHRA BKN030TCU

Observaciones y pronósticos meteorológicos de más de 4000 aeropuertos (mensajes METAR y TAF).

Los puntos amarillos y rojos representan las estaciones disponibles.

Ponga el ratón en el punto deseado para ver el nombre de la estación.

Haga clic para ver las observaciones y los pronósticos meteorológicos.

Para cambiar el mapa : haga clic en los botones verdes con una cruz de color negro para hacer un zoom, en el botón verde con un guión para alejar o en las flechas verdes para mapas adyacentes.


METAR-TAF: